createdAt,value
2023-04-23T00:01:57.668Z,16.83
2023-04-23T00:04:24.829Z,16.78
2023-04-23T00:06:51.743Z,16.86
2023-04-23T00:09:18.526Z,17.00
2023-04-23T00:11:45.362Z,16.89
2023-04-23T00:14:12.583Z,16.91
2023-04-23T00:16:39.825Z,16.95
2023-04-23T00:19:06.886Z,17.05
2023-04-23T00:21:33.824Z,17.01
2023-04-23T00:24:00.648Z,16.97
2023-04-23T00:26:27.374Z,17.03
2023-04-23T00:28:54.323Z,17.05
2023-04-23T00:31:22.819Z,16.93
2023-04-23T00:33:49.752Z,16.87
2023-04-23T00:36:16.577Z,17.03
2023-04-23T00:38:43.586Z,17.12
2023-04-23T00:41:11.109Z,17.01
2023-04-23T00:43:38.080Z,16.92
2023-04-23T00:46:05.323Z,17.09
2023-04-23T00:48:32.042Z,16.98
2023-04-23T00:51:00.556Z,17.07
2023-04-23T00:53:27.637Z,17.14
2023-04-23T00:55:54.755Z,17.17
2023-04-23T00:58:21.746Z,17.14
2023-04-23T01:00:52.351Z,17.12
2023-04-23T01:03:21.948Z,17.11
2023-04-23T01:05:49.531Z,17.19
2023-04-23T01:08:16.886Z,17.16
2023-04-23T01:10:47.442Z,17.14
2023-04-23T01:13:14.254Z,16.93
2023-04-23T01:15:41.182Z,17.12
2023-04-23T01:18:08.030Z,17.11
2023-04-23T01:20:35.512Z,17.13
2023-04-23T01:23:05.774Z,17.12
2023-04-23T01:25:32.739Z,17.11
2023-04-23T01:27:59.514Z,17.11
2023-04-23T01:30:27.415Z,17.11
2023-04-23T01:32:57.428Z,16.99
2023-04-23T01:35:24.534Z,16.99
2023-04-23T01:37:52.697Z,17.05
2023-04-23T01:40:20.370Z,17.09
2023-04-23T01:42:48.270Z,17.05
2023-04-23T01:45:15.162Z,16.99
2023-04-23T01:47:42.170Z,17.01
2023-04-23T01:50:09.536Z,16.89
2023-04-23T01:52:36.730Z,16.89
2023-04-23T01:55:03.816Z,16.78
2023-04-23T01:57:30.787Z,16.94
2023-04-23T02:00:09.524Z,16.85
2023-04-23T02:02:36.479Z,16.87
2023-04-23T02:05:04.821Z,16.57
2023-04-23T02:07:32.403Z,16.71
2023-04-23T02:09:59.215Z,16.97
2023-04-23T02:12:26.342Z,16.96
2023-04-23T02:14:53.666Z,16.93
2023-04-23T02:17:23.180Z,16.91
2023-04-23T02:19:50.212Z,16.94
2023-04-23T02:22:17.989Z,16.95
2023-04-23T02:24:44.716Z,16.91
2023-04-23T02:27:11.455Z,16.88
2023-04-23T02:29:38.447Z,16.67
2023-04-23T02:32:06.320Z,16.88
2023-04-23T02:34:33.231Z,16.77
2023-04-23T02:37:00.188Z,16.80
2023-04-23T02:39:26.939Z,16.88
2023-04-23T02:41:53.830Z,16.73
2023-04-23T02:44:20.847Z,16.84
2023-04-23T02:46:47.607Z,16.78
2023-04-23T02:49:14.852Z,16.70
2023-04-23T02:51:41.804Z,16.69
2023-04-23T02:54:08.570Z,16.47
2023-04-23T02:56:35.320Z,16.61
2023-04-23T02:59:02.215Z,16.56
2023-04-23T03:01:29.044Z,16.48
2023-04-23T03:03:55.972Z,16.41
2023-04-23T03:06:22.922Z,16.46
2023-04-23T03:08:49.657Z,16.46
2023-04-23T03:11:16.415Z,16.46
2023-04-23T03:13:43.300Z,16.48
2023-04-23T03:16:10.248Z,16.50
2023-04-23T03:18:37.150Z,16.51
2023-04-23T03:21:04.233Z,16.52
2023-04-23T03:23:30.976Z,16.55
2023-04-23T03:25:58.027Z,16.58
2023-04-23T03:28:25.128Z,16.56
2023-04-23T03:30:51.976Z,16.60
2023-04-23T03:33:18.766Z,16.61
2023-04-23T03:35:46.297Z,16.63
2023-04-23T03:38:13.102Z,16.65
2023-04-23T03:40:39.854Z,16.66
2023-04-23T03:43:06.765Z,16.48
2023-04-23T03:45:33.490Z,16.59
2023-04-23T03:48:00.258Z,16.61
2023-04-23T03:50:27.197Z,16.58
2023-04-23T03:52:54.053Z,16.58
2023-04-23T03:55:21.111Z,16.60
2023-04-23T03:57:48.013Z,16.58
2023-04-23T04:00:14.914Z,16.34
2023-04-23T04:02:41.929Z,16.58
2023-04-23T04:05:11.447Z,16.67
2023-04-23T04:07:38.409Z,16.69
2023-04-23T04:10:06.588Z,16.46
2023-04-23T04:12:33.474Z,16.62
2023-04-23T04:15:00.381Z,16.52
2023-04-23T04:17:27.125Z,16.65
2023-04-23T04:19:53.966Z,16.69
2023-04-23T04:22:20.822Z,16.68
2023-04-23T04:24:47.731Z,16.63
2023-04-23T04:27:15.011Z,16.16
2023-04-23T04:29:41.730Z,16.56
2023-04-23T04:32:09.433Z,16.33
2023-04-23T04:34:39.593Z,16.28
2023-04-23T04:37:06.804Z,16.42
2023-04-23T04:39:33.574Z,16.37
2023-04-23T04:42:03.016Z,16.30
2023-04-23T04:44:30.825Z,16.28
2023-04-23T04:46:57.851Z,16.21
2023-04-23T04:49:24.791Z,16.03
2023-04-23T04:51:51.503Z,16.00
2023-04-23T04:54:18.357Z,16.11
2023-04-23T04:56:45.259Z,16.08
2023-04-23T04:59:11.968Z,16.02
2023-04-23T05:01:38.674Z,16.09
2023-04-23T05:04:06.290Z,15.82
2023-04-23T05:06:33.468Z,16.06
2023-04-23T05:09:00.499Z,16.07
2023-04-23T05:11:27.598Z,16.05
2023-04-23T05:13:54.347Z,15.86
2023-04-23T05:16:21.512Z,16.00
2023-04-23T05:18:48.686Z,15.86
2023-04-23T05:21:15.705Z,15.61
2023-04-23T05:23:42.608Z,15.83
2023-04-23T05:26:09.357Z,15.83
2023-04-23T05:28:36.443Z,15.83
2023-04-23T05:31:03.693Z,15.80
2023-04-23T05:33:33.589Z,15.79
2023-04-23T05:36:03.205Z,15.77
2023-04-23T05:38:30.061Z,15.73
2023-04-23T05:40:56.862Z,15.81
2023-04-23T05:43:23.617Z,15.69
2023-04-23T05:45:50.484Z,15.86
2023-04-23T05:48:17.255Z,15.90
2023-04-23T05:50:44.080Z,15.91
2023-04-23T05:53:11.078Z,15.93
2023-04-23T05:55:37.864Z,15.94
2023-04-23T05:58:05.270Z,15.88
2023-04-23T06:00:32.663Z,16.00
2023-04-23T06:02:59.630Z,16.02
2023-04-23T06:05:26.627Z,15.85
2023-04-23T06:07:54.376Z,16.10
2023-04-23T06:10:21.127Z,15.83
2023-04-23T06:12:48.018Z,16.09
2023-04-23T06:15:14.901Z,15.95
2023-04-23T06:17:41.666Z,16.14
2023-04-23T06:20:10.912Z,16.15
2023-04-23T06:22:37.672Z,16.16
2023-04-23T06:25:05.705Z,16.12
2023-04-23T06:27:33.984Z,16.17
2023-04-23T06:30:00.878Z,15.99
2023-04-23T06:32:27.619Z,16.14
2023-04-23T06:35:00.702Z,16.18
2023-04-23T06:37:29.764Z,16.24
2023-04-23T06:39:57.011Z,16.04
2023-04-23T06:42:23.856Z,16.18
2023-04-23T06:44:52.111Z,16.27
2023-04-23T06:47:19.815Z,16.28
2023-04-23T06:49:46.583Z,16.32
2023-04-23T06:52:13.425Z,16.26
2023-04-23T06:54:40.449Z,16.37
2023-04-23T06:57:07.348Z,16.38
2023-04-23T06:59:34.142Z,16.39
2023-04-23T07:02:01.104Z,16.25
2023-04-23T07:04:28.052Z,16.36
2023-04-23T07:06:55.453Z,16.32
2023-04-23T07:09:23.382Z,16.34
2023-04-23T07:11:50.348Z,16.33
2023-04-23T07:14:17.210Z,16.43
2023-04-23T07:16:44.213Z,16.49
2023-04-23T07:19:11.003Z,16.43
2023-04-23T07:21:37.704Z,16.63
2023-04-23T07:24:07.428Z,16.72
2023-04-23T07:26:34.911Z,16.68
2023-04-23T07:29:02.013Z,16.87
2023-04-23T07:31:28.968Z,16.81
2023-04-23T07:33:56.340Z,16.89
2023-04-23T07:36:23.226Z,16.70
2023-04-23T07:38:51.271Z,16.92
2023-04-23T07:41:18.496Z,16.94
2023-04-23T07:43:45.412Z,16.92
2023-04-23T07:46:12.491Z,16.98
2023-04-23T07:48:39.576Z,17.05
2023-04-23T07:51:06.828Z,17.13
2023-04-23T07:53:33.839Z,16.88
2023-04-23T07:56:00.662Z,16.64
2023-04-23T07:58:27.499Z,17.23
2023-04-23T08:00:54.404Z,17.19
2023-04-23T08:03:21.346Z,17.17
2023-04-23T08:05:48.282Z,17.14
2023-04-23T08:08:15.175Z,17.03
2023-04-23T08:10:42.041Z,16.95
2023-04-23T08:13:08.909Z,16.87
2023-04-23T08:15:36.270Z,16.77
2023-04-23T08:18:04.427Z,16.70
2023-04-23T08:20:32.545Z,16.64
2023-04-23T08:22:59.685Z,16.47
2023-04-23T08:25:26.600Z,16.60
2023-04-23T08:27:53.377Z,16.56
2023-04-23T08:30:20.610Z,16.52
2023-04-23T08:32:51.146Z,16.51
2023-04-23T08:35:18.206Z,16.50
2023-04-23T08:37:45.347Z,16.46
2023-04-23T08:40:13.233Z,16.39
2023-04-23T08:42:51.601Z,16.38
2023-04-23T08:45:18.797Z,16.54
2023-04-23T08:47:45.713Z,16.58
2023-04-23T08:50:13.878Z,16.62
2023-04-23T08:52:42.071Z,16.49
2023-04-23T08:55:12.323Z,16.51
2023-04-23T08:57:40.167Z,16.75
2023-04-23T09:00:11.106Z,16.73
2023-04-23T09:02:40.106Z,16.71
2023-04-23T09:05:07.393Z,16.83
2023-04-23T09:07:34.957Z,16.75
2023-04-23T09:10:02.945Z,16.37
2023-04-23T09:12:29.942Z,16.92
2023-04-23T09:14:56.686Z,16.97
2023-04-23T09:17:23.876Z,17.01
2023-04-23T09:19:54.123Z,16.98
2023-04-23T09:22:46.572Z,16.99
2023-04-23T09:25:15.616Z,16.99
2023-04-23T09:27:42.420Z,17.07
2023-04-23T09:30:10.966Z,17.19
2023-04-23T09:32:42.805Z,17.28
2023-04-23T09:35:10.801Z,17.36
2023-04-23T09:37:37.667Z,17.48
2023-04-23T09:40:08.804Z,17.52
2023-04-23T09:42:36.059Z,17.49
2023-04-23T09:45:11.629Z,17.76
2023-04-23T09:47:39.190Z,17.82
2023-04-23T09:50:10.490Z,17.86
2023-04-23T09:52:40.539Z,17.80
2023-04-23T09:55:08.129Z,17.86
2023-04-23T09:57:41.721Z,17.92
2023-04-23T10:00:20.017Z,17.81
2023-04-23T10:02:49.470Z,17.97
2023-04-23T10:07:50.182Z,17.89
2023-04-23T10:10:18.441Z,18.08
2023-04-23T10:12:54.398Z,18.14
2023-04-23T10:15:22.305Z,18.23
2023-04-23T10:17:51.320Z,17.87
2023-04-23T10:20:18.464Z,18.02
2023-04-23T10:22:46.782Z,18.12
2023-04-23T10:25:13.650Z,17.91
2023-04-23T10:27:52.820Z,17.73
2023-04-23T10:30:21.410Z,17.73
2023-04-23T10:32:48.964Z,17.42
2023-04-23T10:35:15.799Z,17.49
2023-04-23T10:37:43.012Z,17.65
2023-04-23T10:40:14.239Z,17.65
2023-04-23T10:42:41.460Z,17.62
2023-04-23T10:47:48.876Z,17.65
2023-04-23T10:50:26.573Z,17.64
2023-04-23T10:52:54.455Z,17.67
2023-04-23T10:55:22.993Z,17.40
2023-04-23T10:58:06.273Z,18.33
2023-04-23T11:00:44.112Z,18.60
2023-04-23T11:03:31.623Z,18.72
2023-04-23T11:06:04.443Z,18.76
2023-04-23T11:08:34.376Z,18.83
2023-04-23T11:11:02.167Z,18.77
2023-04-23T11:13:29.774Z,18.86
2023-04-23T11:16:22.138Z,18.71
2023-04-23T11:19:06.509Z,18.98
2023-04-23T11:22:01.311Z,18.91
2023-04-23T11:24:37.173Z,18.69
2023-04-23T11:27:06.464Z,18.97
2023-04-23T11:29:33.690Z,18.76
2023-04-23T11:32:03.909Z,18.87
2023-04-23T11:34:31.904Z,19.07
2023-04-23T11:36:59.413Z,18.98
2023-04-23T11:39:27.366Z,19.03
2023-04-23T11:41:54.846Z,18.99
2023-04-23T11:44:21.918Z,19.00
2023-04-23T11:46:49.721Z,18.99
2023-04-23T11:49:19.905Z,18.95
2023-04-23T11:51:46.850Z,18.90
2023-04-23T11:54:13.970Z,18.85
2023-04-23T11:56:41.348Z,18.60
2023-04-23T11:59:08.255Z,18.69
2023-04-23T12:01:48.448Z,18.80
2023-04-23T12:04:17.140Z,18.67
2023-04-23T12:06:44.958Z,18.80
2023-04-23T12:09:13.191Z,18.93
2023-04-23T12:11:41.387Z,19.00
2023-04-23T12:14:08.755Z,19.08
2023-04-23T12:16:39.766Z,19.21
2023-04-23T12:19:17.280Z,19.12
2023-04-23T12:22:08.868Z,19.07
2023-04-23T12:24:52.342Z,19.16
2023-04-23T12:27:20.634Z,19.17
2023-04-23T12:29:51.288Z,19.11
2023-04-23T12:32:19.372Z,19.14
2023-04-23T12:34:55.933Z,19.20
2023-04-23T12:37:30.318Z,19.05
2023-04-23T12:39:59.578Z,19.23
2023-04-23T12:42:26.314Z,19.39
2023-04-23T12:44:55.856Z,19.49
2023-04-23T12:47:22.970Z,19.73
2023-04-23T12:49:53.309Z,19.86
2023-04-23T12:52:21.214Z,20.07
2023-04-23T12:54:52.324Z,19.99
2023-04-23T12:57:23.118Z,20.28
2023-04-23T12:59:50.433Z,19.78
2023-04-23T13:02:17.378Z,20.38
2023-04-23T13:04:44.174Z,20.44
2023-04-23T13:07:10.915Z,20.49
2023-04-23T13:09:37.750Z,20.40
2023-04-23T13:12:04.635Z,20.31
2023-04-23T13:14:32.510Z,20.20
2023-04-23T13:16:59.508Z,20.68
2023-04-23T13:19:26.503Z,20.88
2023-04-23T13:21:53.881Z,20.96
2023-04-23T13:24:20.871Z,21.03
2023-04-23T13:26:47.592Z,21.05
2023-04-23T13:29:14.454Z,21.06
2023-04-23T13:31:41.388Z,20.88
2023-04-23T13:34:08.917Z,21.11
2023-04-23T13:36:35.759Z,21.18
2023-04-23T13:39:03.236Z,21.19
2023-04-23T13:41:30.164Z,21.12
2023-04-23T13:43:56.926Z,21.33
2023-04-23T13:46:23.775Z,21.18
2023-04-23T13:48:50.632Z,21.20
2023-04-23T13:51:33.097Z,21.21
2023-04-23T13:54:01.529Z,21.26
2023-04-23T13:56:30.247Z,21.11
2023-04-23T14:01:32.091Z,21.15
2023-04-23T14:03:58.979Z,20.82
2023-04-23T14:06:25.988Z,21.02
2023-04-23T14:08:52.774Z,20.94
2023-04-23T14:11:19.551Z,20.84
2023-04-23T14:13:46.412Z,20.92
2023-04-23T14:16:13.184Z,20.87
2023-04-23T14:18:39.955Z,20.73
2023-04-23T14:21:07.594Z,20.69
2023-04-23T14:23:44.361Z,20.67
2023-04-23T14:26:11.209Z,20.68
2023-04-23T14:28:44.908Z,20.57
2023-04-23T14:31:11.827Z,20.34
2023-04-23T14:33:38.578Z,20.25
2023-04-23T14:36:05.429Z,19.96
2023-04-23T14:38:32.269Z,20.03
2023-04-23T14:40:59.002Z,20.10
2023-04-23T14:43:25.884Z,19.99
2023-04-23T14:45:52.899Z,19.91
2023-04-23T14:48:19.889Z,19.88
2023-04-23T14:50:46.619Z,19.78
2023-04-23T14:53:13.609Z,19.75
2023-04-23T14:55:42.912Z,19.74
2023-04-23T14:58:09.841Z,19.75
2023-04-23T15:00:36.667Z,19.74
2023-04-23T15:03:08.524Z,19.60
2023-04-23T15:05:35.541Z,19.73
2023-04-23T15:08:02.348Z,19.65
2023-04-23T15:10:29.634Z,19.65
2023-04-23T15:13:10.182Z,19.57
2023-04-23T15:15:49.936Z,19.53
2023-04-23T15:18:17.317Z,19.64
2023-04-23T15:20:44.576Z,19.52
2023-04-23T15:23:11.953Z,19.77
2023-04-23T15:25:39.538Z,19.79
2023-04-23T15:28:07.357Z,19.85
2023-04-23T15:30:34.201Z,19.69
2023-04-23T15:33:01.147Z,19.90
2023-04-23T15:35:28.289Z,19.69
2023-04-23T15:37:55.111Z,19.78
2023-04-23T15:40:21.924Z,19.81
2023-04-23T15:42:50.186Z,19.76
2023-04-23T15:45:17.293Z,19.70
2023-04-23T15:47:44.310Z,19.52
2023-04-23T15:50:11.760Z,19.76
2023-04-23T15:52:39.753Z,19.79
2023-04-23T15:55:07.049Z,19.52
2023-04-23T15:57:33.886Z,19.77
2023-04-23T16:00:01.445Z,19.59
2023-04-23T16:02:29.077Z,19.64
2023-04-23T16:04:56.497Z,19.93
2023-04-23T16:07:23.384Z,19.97
2023-04-23T16:09:50.262Z,19.98
2023-04-23T16:12:17.257Z,19.71
2023-04-23T16:14:45.828Z,19.88
2023-04-23T16:17:12.589Z,19.84
2023-04-23T16:19:40.521Z,19.78
2023-04-23T16:22:07.471Z,19.62
2023-04-23T16:24:34.833Z,19.64
2023-04-23T16:27:02.684Z,19.65
2023-04-23T16:29:29.565Z,19.68
2023-04-23T16:31:56.349Z,19.68
2023-04-23T16:34:23.209Z,19.70
2023-04-23T16:36:49.923Z,19.73
2023-04-23T16:39:16.701Z,19.71
2023-04-23T16:41:43.630Z,19.67
2023-04-23T16:44:10.398Z,19.62
2023-04-23T16:46:37.405Z,19.62
2023-04-23T16:49:04.326Z,19.54
2023-04-23T16:51:32.433Z,19.57
2023-04-23T16:53:59.319Z,19.54
2023-04-23T16:56:26.293Z,19.50
2023-04-23T16:58:53.174Z,19.48
2023-04-23T17:01:19.939Z,19.42
2023-04-23T17:03:47.186Z,19.44
2023-04-23T17:06:29.402Z,19.36
2023-04-23T17:09:00.316Z,19.37
2023-04-23T17:11:27.914Z,19.23
2023-04-23T17:13:54.991Z,19.28
2023-04-23T17:16:21.901Z,19.26
2023-04-23T17:18:48.821Z,19.20
2023-04-23T17:21:15.685Z,19.21
2023-04-23T17:23:42.538Z,19.11
2023-04-23T17:26:09.454Z,19.22
2023-04-23T17:28:36.270Z,19.19
2023-04-23T17:31:03.577Z,18.52
2023-04-23T17:33:30.426Z,19.10
2023-04-23T17:35:57.331Z,19.04
2023-04-23T17:38:24.843Z,18.99
2023-04-23T17:40:54.603Z,18.85
2023-04-23T17:43:21.826Z,18.87
2023-04-23T17:45:48.835Z,18.81
2023-04-23T17:48:16.071Z,18.79
2023-04-23T17:50:43.035Z,18.68
2023-04-23T17:53:10.292Z,18.78
2023-04-23T17:55:37.041Z,18.63
2023-04-23T17:58:05.932Z,18.69
2023-04-23T18:00:37.510Z,18.70
2023-04-23T18:03:04.717Z,18.33
2023-04-23T18:05:31.728Z,18.66
2023-04-23T18:07:58.508Z,18.44
2023-04-23T18:10:25.412Z,18.32
2023-04-23T18:12:52.373Z,18.61
2023-04-23T18:15:19.490Z,18.61
2023-04-23T18:17:47.507Z,18.48
2023-04-23T18:20:14.618Z,18.48
2023-04-23T18:22:41.739Z,18.18
2023-04-23T18:25:10.166Z,18.28
2023-04-23T18:27:37.071Z,18.19
2023-04-23T18:30:05.710Z,18.13
2023-04-23T18:32:37.485Z,18.05
2023-04-23T18:35:08.284Z,17.82
2023-04-23T18:37:48.314Z,17.88
2023-04-23T18:40:15.237Z,17.80
2023-04-23T18:42:42.110Z,17.63
2023-04-23T18:45:10.797Z,17.71
2023-04-23T18:47:45.431Z,17.38
2023-04-23T18:50:37.219Z,17.69
2023-04-23T18:53:04.712Z,17.68
2023-04-23T18:55:31.581Z,17.68
2023-04-23T18:57:59.033Z,17.45
2023-04-23T19:00:25.956Z,17.68
2023-04-23T19:02:52.840Z,17.66
2023-04-23T19:05:20.084Z,17.67
2023-04-23T19:07:48.505Z,17.47
2023-04-23T19:10:16.793Z,17.43
2023-04-23T19:12:44.355Z,17.64
2023-04-23T19:15:11.607Z,17.35
2023-04-23T19:17:38.721Z,17.64
2023-04-23T19:20:09.712Z,17.62
2023-04-23T19:22:36.865Z,17.63
2023-04-23T19:25:04.699Z,17.61
2023-04-23T19:27:31.535Z,17.60
2023-04-23T19:29:59.304Z,17.47
2023-04-23T19:32:26.202Z,17.57
2023-04-23T19:34:53.077Z,17.47
2023-04-23T19:37:19.880Z,17.27
2023-04-23T19:39:46.630Z,17.48
2023-04-23T19:42:13.516Z,17.52
2023-04-23T19:44:40.248Z,17.49
2023-04-23T19:47:07.094Z,17.47
2023-04-23T19:49:33.974Z,17.40
2023-04-23T19:52:01.961Z,17.42
2023-04-23T19:54:28.877Z,17.15
2023-04-23T19:56:55.741Z,17.42
2023-04-23T19:59:22.529Z,17.31
2023-04-23T20:01:49.406Z,17.41
2023-04-23T20:04:16.552Z,17.27
2023-04-23T20:06:43.567Z,17.48
2023-04-23T20:09:18.362Z,17.50
2023-04-23T20:11:45.939Z,17.51
2023-04-23T20:14:15.643Z,17.33
2023-04-23T20:16:42.370Z,17.52
2023-04-23T20:19:11.963Z,17.53
2023-04-23T20:21:39.228Z,17.32
2023-04-23T20:24:07.649Z,17.32
2023-04-23T20:26:35.430Z,17.44
2023-04-23T20:29:02.250Z,17.54
2023-04-23T20:31:29.121Z,17.56
2023-04-23T20:33:56.414Z,17.58
2023-04-23T20:36:28.741Z,17.49
2023-04-23T20:38:58.371Z,17.61
2023-04-23T20:41:29.460Z,17.62
2023-04-23T20:43:57.161Z,17.37
2023-04-23T20:46:24.851Z,17.41
2023-04-23T20:48:53.227Z,17.48
2023-04-23T20:51:20.593Z,17.64
2023-04-23T20:53:47.527Z,17.48
2023-04-23T20:56:14.447Z,17.60
2023-04-23T20:58:41.631Z,17.40
2023-04-23T21:01:11.568Z,17.57
2023-04-23T21:03:39.022Z,17.66
2023-04-23T21:06:06.868Z,17.37
2023-04-23T21:08:33.836Z,17.66
2023-04-23T21:11:00.602Z,17.66
2023-04-23T21:13:27.334Z,17.59
2023-04-23T21:15:54.211Z,17.56
2023-04-23T21:18:21.042Z,17.61
2023-04-23T21:20:47.822Z,17.60
2023-04-23T21:23:14.630Z,17.61
2023-04-23T21:25:41.428Z,17.61
2023-04-23T21:28:08.204Z,17.60
2023-04-23T21:30:50.360Z,17.61
2023-04-23T21:33:18.092Z,17.61
2023-04-23T21:35:44.934Z,17.61
2023-04-23T21:38:11.992Z,17.57
2023-04-23T21:40:38.903Z,17.64
2023-04-23T21:43:06.197Z,17.65
2023-04-23T21:45:34.382Z,17.65
2023-04-23T21:48:01.813Z,17.60
2023-04-23T21:50:29.311Z,17.66
2023-04-23T21:52:58.679Z,17.68
2023-04-23T21:55:29.438Z,17.64
2023-04-23T21:58:03.156Z,17.67
2023-04-23T22:00:41.145Z,17.65
2023-04-23T22:03:09.182Z,17.64
2023-04-23T22:05:36.379Z,17.60
2023-04-23T22:08:03.412Z,17.60
2023-04-23T22:10:30.200Z,17.61
2023-04-23T22:12:57.200Z,17.60
2023-04-23T22:15:24.171Z,17.47
2023-04-23T22:17:51.026Z,17.61
2023-04-23T22:20:19.019Z,17.60
2023-04-23T22:22:45.985Z,17.57
2023-04-23T22:25:13.195Z,17.48
2023-04-23T22:27:41.174Z,17.15
2023-04-23T22:30:09.376Z,17.47
2023-04-23T22:32:36.539Z,17.57
2023-04-23T22:35:03.514Z,17.39
2023-04-23T22:37:31.538Z,17.59
2023-04-23T22:39:58.494Z,17.55
2023-04-23T22:42:25.436Z,17.63
2023-04-23T22:44:52.359Z,17.59
2023-04-23T22:47:19.138Z,17.66
2023-04-23T22:49:46.786Z,17.68
2023-04-23T22:52:14.570Z,17.69
2023-04-23T22:54:42.005Z,17.69
2023-04-23T22:57:09.476Z,17.68
2023-04-23T22:59:36.367Z,17.66
2023-04-23T23:02:03.116Z,17.64
2023-04-23T23:04:30.049Z,17.62
2023-04-23T23:06:56.829Z,17.62
2023-04-23T23:09:23.689Z,17.57
2023-04-23T23:11:50.394Z,17.55
2023-04-23T23:14:17.536Z,17.60
2023-04-23T23:16:44.271Z,17.48
2023-04-23T23:19:12.462Z,17.58
2023-04-23T23:21:39.859Z,17.58
2023-04-23T23:24:06.748Z,17.49
2023-04-23T23:26:33.734Z,17.51
2023-04-23T23:29:00.759Z,17.02
2023-04-23T23:31:28.674Z,17.60
2023-04-23T23:33:55.710Z,17.59
2023-04-23T23:36:22.588Z,17.59
2023-04-23T23:38:50.934Z,17.44
2023-04-23T23:41:17.967Z,17.59
2023-04-23T23:43:44.670Z,17.52
2023-04-23T23:46:12.441Z,17.40
2023-04-23T23:48:39.319Z,17.61
2023-04-23T23:51:06.161Z,17.61
2023-04-23T23:53:32.874Z,17.51
2023-04-23T23:56:00.533Z,17.61
2023-04-23T23:58:29.395Z,17.57
